createdAt,value
2023-01-18T00:01:59.295Z,3.67
2023-01-18T00:04:26.925Z,4.00
2023-01-18T00:06:54.497Z,4.03
2023-01-18T00:09:22.079Z,3.10
2023-01-18T00:11:50.009Z,2.90
2023-01-18T00:14:19.058Z,2.75
2023-01-18T00:16:46.687Z,2.17
2023-01-18T00:19:14.690Z,2.75
2023-01-18T00:21:46.301Z,2.20
2023-01-18T00:24:14.924Z,2.25
2023-01-18T00:26:44.166Z,1.90
2023-01-18T00:29:12.085Z,2.38
2023-01-18T00:31:41.108Z,2.53
2023-01-18T00:34:09.033Z,2.23
2023-01-18T00:36:36.642Z,2.28
2023-01-18T00:39:04.597Z,2.40
2023-01-18T00:41:32.243Z,2.42
2023-01-18T00:44:00.015Z,2.55
2023-01-18T00:46:28.846Z,1.77
2023-01-18T00:48:59.137Z,2.42
2023-01-18T00:51:27.520Z,2.22
2023-01-18T00:53:55.229Z,2.40
2023-01-18T00:56:23.438Z,2.65
2023-01-18T00:58:51.258Z,1.70
2023-01-18T01:01:19.140Z,2.30
2023-01-18T01:04:04.179Z,2.38
2023-01-18T01:06:47.101Z,2.20
2023-01-18T01:09:16.081Z,2.13
2023-01-18T01:12:05.225Z,1.90
2023-01-18T01:14:51.286Z,2.20
2023-01-18T01:17:36.581Z,2.70
2023-01-18T01:20:21.410Z,1.90
2023-01-18T01:23:07.867Z,2.47
2023-01-18T01:25:54.151Z,2.03
2023-01-18T01:28:21.850Z,2.50
2023-01-18T01:30:49.629Z,1.63
2023-01-18T01:33:18.399Z,1.65
2023-01-18T01:35:46.202Z,1.58
2023-01-18T01:38:15.034Z,1.93
2023-01-18T01:40:43.341Z,1.90
2023-01-18T01:43:13.485Z,2.05
2023-01-18T01:45:41.148Z,1.77
2023-01-18T01:48:10.872Z,2.03
2023-01-18T01:50:40.295Z,1.80
2023-01-18T01:53:07.929Z,2.05
2023-01-18T01:55:39.270Z,1.67
2023-01-18T01:58:09.699Z,1.38
2023-01-18T02:00:37.206Z,1.90
2023-01-18T02:03:05.382Z,1.60
2023-01-18T02:05:34.883Z,1.10
2023-01-18T02:08:03.205Z,1.10
2023-01-18T02:10:31.544Z,1.45
2023-01-18T02:13:01.323Z,0.98
2023-01-18T02:15:32.126Z,1.00
2023-01-18T02:18:08.995Z,0.98
2023-01-18T02:20:51.504Z,0.93
2023-01-18T02:23:28.502Z,1.35
2023-01-18T02:26:08.053Z,1.15
2023-01-18T02:28:38.410Z,1.00
2023-01-18T02:31:11.421Z,1.15
2023-01-18T02:33:44.866Z,0.95
2023-01-18T02:36:17.176Z,1.17
2023-01-18T02:38:46.106Z,1.35
2023-01-18T02:41:17.220Z,1.30
2023-01-18T02:44:04.138Z,1.48
2023-01-18T02:46:33.841Z,1.10
2023-01-18T02:49:06.931Z,1.52
2023-01-18T02:51:34.954Z,1.60
2023-01-18T02:54:03.390Z,1.40
2023-01-18T02:56:35.154Z,1.33
2023-01-18T02:59:07.119Z,1.40
2023-01-18T03:01:36.769Z,1.40
2023-01-18T03:04:06.447Z,1.50
2023-01-18T03:06:34.278Z,1.73
2023-01-18T03:09:02.084Z,1.00
2023-01-18T03:11:35.457Z,1.30
2023-01-18T03:14:08.978Z,1.30
2023-01-18T03:16:44.184Z,1.20
2023-01-18T03:19:32.434Z,1.60
2023-01-18T03:22:01.085Z,1.23
2023-01-18T03:24:28.713Z,1.23
2023-01-18T03:27:17.129Z,1.70
2023-01-18T03:30:04.291Z,1.30
2023-01-18T03:32:51.868Z,1.60
2023-01-18T03:35:19.999Z,1.75
2023-01-18T03:37:48.473Z,1.92
2023-01-18T03:40:18.281Z,2.30
2023-01-18T03:42:49.472Z,1.80
2023-01-18T03:45:22.473Z,1.80
2023-01-18T03:47:51.536Z,1.80
2023-01-18T03:50:19.104Z,2.10
2023-01-18T03:52:49.790Z,1.92
2023-01-18T03:55:20.532Z,2.15
2023-01-18T03:57:50.291Z,1.57
2023-01-18T04:00:18.106Z,1.70
2023-01-18T04:02:46.517Z,1.92
2023-01-18T04:05:15.881Z,2.00
2023-01-18T04:07:43.688Z,1.42
2023-01-18T04:10:11.965Z,1.93
2023-01-18T04:12:39.916Z,1.30
2023-01-18T04:15:07.961Z,1.80
2023-01-18T04:17:36.440Z,1.58
2023-01-18T04:20:04.185Z,1.85
2023-01-18T04:22:37.163Z,1.87
2023-01-18T04:25:04.919Z,2.05
2023-01-18T04:27:32.555Z,1.90
2023-01-18T04:30:00.502Z,1.75
2023-01-18T04:32:28.845Z,2.00
2023-01-18T04:34:56.463Z,1.93
2023-01-18T04:37:31.175Z,2.13
2023-01-18T04:40:00.385Z,1.88
2023-01-18T04:42:28.037Z,2.22
2023-01-18T04:44:56.365Z,1.90
2023-01-18T04:47:24.035Z,1.77
2023-01-18T04:49:51.551Z,1.80
2023-01-18T04:52:19.356Z,2.20
2023-01-18T04:54:47.315Z,1.90
2023-01-18T04:57:16.185Z,2.10
2023-01-18T04:59:46.007Z,1.97
2023-01-18T05:02:15.401Z,2.30
2023-01-18T05:04:46.101Z,1.90
2023-01-18T05:07:14.766Z,1.85
2023-01-18T05:09:42.392Z,2.20
2023-01-18T05:12:10.014Z,1.83
2023-01-18T05:14:39.531Z,2.17
2023-01-18T05:17:07.407Z,2.20
2023-01-18T05:19:34.967Z,1.85
2023-01-18T05:22:02.777Z,2.22
2023-01-18T05:24:31.252Z,1.83
2023-01-18T05:26:58.813Z,1.83
2023-01-18T05:29:26.487Z,1.88
2023-01-18T05:31:55.407Z,2.05
2023-01-18T05:34:23.508Z,1.90
2023-01-18T05:36:51.160Z,2.10
2023-01-18T05:39:18.794Z,1.80
2023-01-18T05:41:46.356Z,1.58
2023-01-18T05:44:14.122Z,1.90
2023-01-18T05:46:42.154Z,1.65
2023-01-18T05:49:12.489Z,1.70
2023-01-18T05:51:40.271Z,1.65
2023-01-18T05:54:07.961Z,1.92
2023-01-18T05:56:35.676Z,0.93
2023-01-18T05:59:03.273Z,1.10
2023-01-18T06:01:30.933Z,1.10
2023-01-18T06:03:58.562Z,1.00
2023-01-18T06:06:28.681Z,1.15
2023-01-18T06:08:56.385Z,0.85
2023-01-18T06:11:23.992Z,0.88
2023-01-18T06:13:52.270Z,0.67
2023-01-18T06:16:20.296Z,0.47
2023-01-18T06:18:47.884Z,0.73
2023-01-18T06:21:15.998Z,0.82
2023-01-18T06:23:45.185Z,0.60
2023-01-18T06:26:12.703Z,1.07
2023-01-18T06:28:40.304Z,0.65
2023-01-18T06:31:08.552Z,0.77
2023-01-18T06:33:36.105Z,1.65
2023-01-18T06:36:03.944Z,0.82
2023-01-18T06:38:31.643Z,1.00
2023-01-18T06:41:00.542Z,0.88
2023-01-18T06:43:28.225Z,1.08
2023-01-18T06:45:56.242Z,0.75
2023-01-18T06:48:24.020Z,0.75
2023-01-18T06:50:53.266Z,1.00
2023-01-18T06:53:21.925Z,0.93
2023-01-18T06:55:56.858Z,0.80
2023-01-18T06:58:26.973Z,1.05
2023-01-18T07:00:58.087Z,1.20
2023-01-18T07:03:27.615Z,0.93
2023-01-18T07:05:55.663Z,0.85
2023-01-18T07:08:23.712Z,0.73
2023-01-18T07:10:53.189Z,1.10
2023-01-18T07:13:21.408Z,0.80
2023-01-18T07:15:56.576Z,1.13
2023-01-18T07:18:24.321Z,0.88
2023-01-18T07:20:57.375Z,0.57
2023-01-18T07:23:25.164Z,0.77
2023-01-18T07:25:58.736Z,1.10
2023-01-18T07:28:26.558Z,0.87
2023-01-18T07:30:55.447Z,0.73
2023-01-18T07:33:23.277Z,0.55
2023-01-18T07:35:52.671Z,0.70
2023-01-18T07:38:20.315Z,0.80
2023-01-18T07:40:48.057Z,0.80
2023-01-18T07:43:16.263Z,0.75
2023-01-18T07:45:43.868Z,0.57
2023-01-18T07:48:13.327Z,0.68
2023-01-18T07:50:41.012Z,1.00
2023-01-18T07:53:09.269Z,0.80
2023-01-18T07:55:38.826Z,0.40
2023-01-18T07:58:06.467Z,0.70
2023-01-18T08:00:34.718Z,0.90
2023-01-18T08:03:02.850Z,0.55
2023-01-18T08:05:34.670Z,0.60
2023-01-18T08:08:02.468Z,0.75
2023-01-18T08:10:31.473Z,0.60
2023-01-18T08:12:59.918Z,0.80
2023-01-18T08:15:29.412Z,1.00
2023-01-18T08:17:57.341Z,0.60
2023-01-18T08:20:25.056Z,0.73
2023-01-18T08:22:58.998Z,0.98
2023-01-18T08:25:29.683Z,0.80
2023-01-18T08:27:59.803Z,0.90
2023-01-18T08:30:28.220Z,0.57
2023-01-18T08:32:57.696Z,0.82
2023-01-18T08:35:26.851Z,1.00
2023-01-18T08:37:54.562Z,0.40
2023-01-18T08:40:24.843Z,0.90
2023-01-18T08:42:56.936Z,0.90
2023-01-18T08:45:24.892Z,0.88
2023-01-18T08:47:56.626Z,0.70
2023-01-18T08:50:24.364Z,0.70
2023-01-18T08:52:52.491Z,1.00
2023-01-18T08:55:20.405Z,1.47
2023-01-18T08:57:49.453Z,1.30
2023-01-18T09:00:17.519Z,0.80
2023-01-18T09:02:45.919Z,1.15
2023-01-18T09:05:17.023Z,1.08
2023-01-18T09:07:45.332Z,0.80
2023-01-18T09:10:13.101Z,0.98
2023-01-18T09:12:40.774Z,1.20
2023-01-18T09:15:10.514Z,1.08
2023-01-18T09:17:38.124Z,1.17
2023-01-18T09:20:09.667Z,1.00
2023-01-18T09:22:37.549Z,1.00
2023-01-18T09:25:05.779Z,1.20
2023-01-18T09:27:33.405Z,0.88
2023-01-18T09:30:02.015Z,0.88
2023-01-18T09:32:31.337Z,1.20
2023-01-18T09:35:00.909Z,1.08
2023-01-18T09:37:28.794Z,1.20
2023-01-18T09:39:56.378Z,0.93
2023-01-18T09:42:25.043Z,0.90
2023-01-18T09:44:54.168Z,0.80
2023-01-18T09:47:24.596Z,1.02
2023-01-18T09:49:56.631Z,0.77
2023-01-18T09:52:28.986Z,0.82
2023-01-18T09:55:01.307Z,0.95
2023-01-18T09:57:35.675Z,1.20
2023-01-18T10:00:04.931Z,0.98
2023-01-18T10:02:39.284Z,1.13
2023-01-18T10:05:11.814Z,1.08
2023-01-18T10:07:49.913Z,1.00
2023-01-18T10:10:19.078Z,0.97
2023-01-18T10:12:49.922Z,0.73
2023-01-18T10:15:20.407Z,0.90
2023-01-18T10:17:48.663Z,1.10
2023-01-18T10:20:18.247Z,1.10
2023-01-18T10:22:48.091Z,0.77
2023-01-18T10:25:16.597Z,0.80
2023-01-18T10:27:55.115Z,1.05
2023-01-18T10:30:30.804Z,0.90
2023-01-18T10:33:01.579Z,0.85
2023-01-18T10:35:32.495Z,1.00
2023-01-18T10:38:02.359Z,0.90
2023-01-18T10:40:31.958Z,0.82
2023-01-18T10:43:02.434Z,1.00
2023-01-18T10:45:31.200Z,1.50
2023-01-18T10:47:59.670Z,0.80
2023-01-18T10:50:37.278Z,1.00
2023-01-18T10:53:19.686Z,1.30
2023-01-18T10:55:52.562Z,0.60
2023-01-18T10:58:24.956Z,1.05
2023-01-18T11:00:54.807Z,0.80
2023-01-18T11:03:23.342Z,1.20
2023-01-18T11:05:52.457Z,0.77
2023-01-18T11:08:23.572Z,0.77
2023-01-18T11:11:01.059Z,0.73
2023-01-18T11:13:31.022Z,0.77
2023-01-18T11:16:05.162Z,0.73
2023-01-18T11:18:32.826Z,0.65
2023-01-18T11:21:01.956Z,0.45
2023-01-18T11:23:32.917Z,1.33
2023-01-18T11:26:01.889Z,0.70
2023-01-18T11:28:35.418Z,0.68
2023-01-18T11:31:08.212Z,0.40
2023-01-18T11:33:36.534Z,0.30
2023-01-18T11:36:06.928Z,0.40
2023-01-18T11:38:35.453Z,0.40
2023-01-18T11:41:04.777Z,0.45
2023-01-18T11:43:34.416Z,0.30
2023-01-18T11:46:07.184Z,0.20
2023-01-18T11:48:37.955Z,0.38
2023-01-18T11:51:10.121Z,0.20
2023-01-18T11:53:43.639Z,0.20
2023-01-18T11:56:14.795Z,0.40
2023-01-18T11:58:42.531Z,0.50
2023-01-18T12:01:23.949Z,0.40
2023-01-18T12:03:57.790Z,0.40
2023-01-18T12:06:33.691Z,0.20
2023-01-18T12:09:04.878Z,0.20
2023-01-18T12:11:46.220Z,0.20
2023-01-18T12:14:19.068Z,0.20
2023-01-18T12:17:00.934Z,0.20
2023-01-18T12:19:45.200Z,0.25
2023-01-18T12:22:27.529Z,0.30
2023-01-18T12:25:08.399Z,0.20
2023-01-18T12:27:40.526Z,0.30
2023-01-18T12:30:23.423Z,0.20
2023-01-18T12:33:02.402Z,0.20
2023-01-18T12:35:39.547Z,0.60
2023-01-18T12:38:15.565Z,0.50
2023-01-18T12:40:47.663Z,0.20
2023-01-18T12:43:21.723Z,0.10
2023-01-18T12:45:53.696Z,0.30
2023-01-18T12:48:24.744Z,0.40
2023-01-18T12:50:56.657Z,0.30
2023-01-18T12:53:32.015Z,0.35
2023-01-18T12:56:04.055Z,0.57
2023-01-18T12:58:31.919Z,0.40
2023-01-18T13:01:02.504Z,0.40
2023-01-18T13:03:32.791Z,0.40
2023-01-18T13:06:02.264Z,0.40
2023-01-18T13:08:40.299Z,0.53
2023-01-18T13:11:09.991Z,0.35
2023-01-18T13:13:38.559Z,0.45
2023-01-18T13:16:19.846Z,0.50
2023-01-18T13:18:50.909Z,0.50
2023-01-18T13:21:25.196Z,0.30
2023-01-18T13:24:00.812Z,0.40
2023-01-18T13:26:29.850Z,0.25
2023-01-18T13:29:16.671Z,0.40
2023-01-18T13:31:44.546Z,0.20
2023-01-18T13:34:25.355Z,0.27
2023-01-18T13:37:02.433Z,0.32
2023-01-18T13:39:46.234Z,0.30
2023-01-18T13:42:40.197Z,0.60
2023-01-18T13:45:14.688Z,0.50
2023-01-18T13:47:47.375Z,0.37
2023-01-18T13:50:34.392Z,0.60
2023-01-18T13:53:26.435Z,0.30
2023-01-18T13:56:10.277Z,0.30
2023-01-18T13:58:45.367Z,0.22
2023-01-18T14:01:23.187Z,0.30
2023-01-18T14:03:52.215Z,0.40
2023-01-18T14:06:25.486Z,0.20
2023-01-18T14:08:55.072Z,0.40
2023-01-18T14:11:25.267Z,0.55
2023-01-18T14:14:08.587Z,0.50
2023-01-18T14:16:38.025Z,0.40
2023-01-18T14:19:16.618Z,0.22
2023-01-18T14:21:53.959Z,0.20
2023-01-18T14:24:36.263Z,0.30
2023-01-18T14:27:05.729Z,0.30
2023-01-18T14:29:37.830Z,0.73
2023-01-18T14:32:07.644Z,0.20
2023-01-18T14:34:37.112Z,0.30
2023-01-18T14:37:05.296Z,0.20
2023-01-18T14:39:33.268Z,0.60
2023-01-18T14:42:02.975Z,0.30
2023-01-18T14:44:56.336Z,1.35
2023-01-18T14:47:27.629Z,0.30
2023-01-18T14:49:55.869Z,0.30
2023-01-18T14:52:28.778Z,0.97
2023-01-18T14:54:56.815Z,0.30
2023-01-18T14:57:25.134Z,0.32
2023-01-18T14:59:56.590Z,0.40
2023-01-18T15:02:28.973Z,0.22
2023-01-18T15:05:10.563Z,0.40
2023-01-18T15:07:39.227Z,0.32
2023-01-18T15:10:07.298Z,0.20
2023-01-18T15:12:35.026Z,0.30
2023-01-18T15:15:06.473Z,0.40
2023-01-18T15:17:35.848Z,1.33
2023-01-18T15:20:05.780Z,1.33
2023-01-18T15:22:35.939Z,1.00
2023-01-18T15:25:03.676Z,0.93
2023-01-18T15:27:32.726Z,1.63
2023-01-18T15:30:02.334Z,1.77
2023-01-18T15:32:32.705Z,4.38
2023-01-18T15:35:01.113Z,4.57
2023-01-18T15:37:30.968Z,1.25
2023-01-18T15:40:00.207Z,1.27
2023-01-18T15:42:29.786Z,1.63
2023-01-18T15:44:59.064Z,0.90
2023-01-18T15:47:28.774Z,0.40
2023-01-18T15:49:58.754Z,0.90
2023-01-18T15:52:37.683Z,1.30
2023-01-18T15:55:06.648Z,1.00
2023-01-18T15:57:35.600Z,1.00
2023-01-18T16:00:03.951Z,1.73
2023-01-18T16:02:32.083Z,0.98
2023-01-18T16:05:11.212Z,2.88
2023-01-18T16:07:41.771Z,4.63
2023-01-18T16:10:10.496Z,4.13
2023-01-18T16:12:38.185Z,3.47
2023-01-18T16:15:06.282Z,3.58
2023-01-18T16:17:37.008Z,1.00
2023-01-18T16:20:07.196Z,2.83
2023-01-18T16:22:38.339Z,2.80
2023-01-18T16:25:11.625Z,2.83
2023-01-18T16:27:47.821Z,1.00
2023-01-18T16:30:20.055Z,0.60
2023-01-18T16:32:51.134Z,0.40
2023-01-18T16:35:20.492Z,1.40
2023-01-18T16:37:50.162Z,2.47
2023-01-18T16:40:18.648Z,2.78
2023-01-18T16:42:57.171Z,3.33
2023-01-18T16:45:24.906Z,0.80
2023-01-18T16:47:52.461Z,0.52
2023-01-18T16:50:20.782Z,0.60
2023-01-18T16:52:50.496Z,0.80
2023-01-18T16:55:19.186Z,0.73
2023-01-18T16:57:47.147Z,0.60
2023-01-18T17:00:17.043Z,1.00
2023-01-18T17:02:47.177Z,0.73
2023-01-18T17:05:15.836Z,0.80
2023-01-18T17:07:43.790Z,0.70
2023-01-18T17:10:18.453Z,0.57
2023-01-18T17:12:47.102Z,0.73
2023-01-18T17:15:15.676Z,0.40
2023-01-18T17:17:44.596Z,0.80
2023-01-18T17:20:16.502Z,0.50
2023-01-18T17:22:44.474Z,0.37
2023-01-18T17:25:12.124Z,0.77
2023-01-18T17:27:41.230Z,0.65
2023-01-18T17:30:09.926Z,0.60
2023-01-18T17:32:37.671Z,0.90
2023-01-18T17:35:06.347Z,0.50
2023-01-18T17:37:34.305Z,0.47
2023-01-18T17:40:19.746Z,0.60
2023-01-18T17:42:52.684Z,0.60
2023-01-18T17:45:20.976Z,0.40
2023-01-18T17:47:48.487Z,0.47
2023-01-18T17:50:21.621Z,0.55
2023-01-18T17:52:49.248Z,0.70
2023-01-18T17:55:21.531Z,0.65
2023-01-18T17:57:54.951Z,0.60
2023-01-18T18:00:22.695Z,0.80
2023-01-18T18:02:51.857Z,1.23
2023-01-18T18:05:19.868Z,1.00
2023-01-18T18:07:49.506Z,1.05
2023-01-18T18:10:17.655Z,0.90
2023-01-18T18:12:45.356Z,0.77
2023-01-18T18:15:14.497Z,1.48
2023-01-18T18:17:42.046Z,0.98
2023-01-18T18:20:11.245Z,1.00
2023-01-18T18:22:39.466Z,1.73
2023-01-18T18:25:07.921Z,1.70
2023-01-18T18:27:45.381Z,1.40
2023-01-18T18:30:15.271Z,3.03
2023-01-18T18:32:42.895Z,2.38
2023-01-18T18:35:24.989Z,1.75
2023-01-18T18:37:54.273Z,1.37
2023-01-18T18:40:22.363Z,1.60
2023-01-18T18:43:01.311Z,1.33
2023-01-18T18:45:31.170Z,1.42
2023-01-18T18:47:59.726Z,1.38
2023-01-18T18:50:27.369Z,2.00
2023-01-18T18:52:57.833Z,2.08
2023-01-18T18:55:26.478Z,1.90
2023-01-18T18:57:54.361Z,3.28
2023-01-18T19:00:22.251Z,2.65
2023-01-18T19:02:53.414Z,1.97
2023-01-18T19:05:21.898Z,2.58
2023-01-18T19:07:51.930Z,3.20
2023-01-18T19:10:20.018Z,2.80
2023-01-18T19:12:47.813Z,4.18
2023-01-18T19:15:15.448Z,3.17
2023-01-18T19:17:42.953Z,2.55
2023-01-18T19:20:13.935Z,2.42
2023-01-18T19:22:41.682Z,2.00
2023-01-18T19:25:09.782Z,2.45
2023-01-18T19:27:37.780Z,2.40
2023-01-18T19:30:10.660Z,2.63
2023-01-18T19:32:38.654Z,2.50
2023-01-18T19:35:06.492Z,2.20
2023-01-18T19:37:35.659Z,2.22
2023-01-18T19:40:05.086Z,1.90
2023-01-18T19:42:32.666Z,1.60
2023-01-18T19:45:02.420Z,1.90
2023-01-18T19:47:30.040Z,1.60
2023-01-18T19:49:57.700Z,1.33
2023-01-18T19:52:25.437Z,1.30
2023-01-18T19:54:54.373Z,1.40
2023-01-18T19:57:22.043Z,1.10
2023-01-18T19:59:49.602Z,0.90
2023-01-18T20:02:17.287Z,1.30
2023-01-18T20:04:47.423Z,0.90
2023-01-18T20:07:16.450Z,1.20
2023-01-18T20:09:45.196Z,1.20
2023-01-18T20:12:14.216Z,1.27
2023-01-18T20:14:42.768Z,1.40
2023-01-18T20:17:10.338Z,1.20
2023-01-18T20:19:37.946Z,1.05
2023-01-18T20:22:05.676Z,1.10
2023-01-18T20:24:33.212Z,1.30
2023-01-18T20:27:15.215Z,1.33
2023-01-18T20:29:44.980Z,1.47
2023-01-18T20:32:16.532Z,1.35
2023-01-18T20:34:46.776Z,1.60
2023-01-18T20:37:15.362Z,1.67
2023-01-18T20:39:42.890Z,1.48
2023-01-18T20:42:10.554Z,1.37
2023-01-18T20:44:41.589Z,2.15
2023-01-18T20:47:10.766Z,1.60
2023-01-18T20:49:41.336Z,1.35
2023-01-18T20:52:09.459Z,1.58
2023-01-18T20:54:38.726Z,1.50
2023-01-18T20:57:06.513Z,1.83
2023-01-18T20:59:34.375Z,1.70
2023-01-18T21:02:03.037Z,1.38
2023-01-18T21:04:32.275Z,1.75
2023-01-18T21:06:59.991Z,1.70
2023-01-18T21:09:27.870Z,1.70
2023-01-18T21:11:55.465Z,1.65
2023-01-18T21:14:23.254Z,1.25
2023-01-18T21:16:53.111Z,1.80
2023-01-18T21:19:21.727Z,1.53
2023-01-18T21:21:50.793Z,2.30
2023-01-18T21:24:18.790Z,1.90
2023-01-18T21:26:46.495Z,1.92
2023-01-18T21:29:14.256Z,2.20
2023-01-18T21:31:41.818Z,1.97
2023-01-18T21:34:09.491Z,2.10
2023-01-18T21:36:37.734Z,2.08
2023-01-18T21:39:06.653Z,2.60
2023-01-18T21:41:51.934Z,2.85
2023-01-18T21:44:37.145Z,2.80
2023-01-18T21:47:06.890Z,2.55
2023-01-18T21:50:15.958Z,2.97
2023-01-18T21:52:57.359Z,2.55
2023-01-18T21:55:26.967Z,2.92
2023-01-18T21:58:08.733Z,2.90
2023-01-18T22:00:37.633Z,2.50
2023-01-18T22:03:05.337Z,2.05
2023-01-18T22:05:33.470Z,2.58
2023-01-18T22:08:02.043Z,2.65
2023-01-18T22:10:31.869Z,2.47
2023-01-18T22:12:59.533Z,2.40
2023-01-18T22:15:27.329Z,2.33
2023-01-18T22:17:54.976Z,2.28
2023-01-18T22:20:22.584Z,2.33
2023-01-18T22:22:50.450Z,2.07
2023-01-18T22:25:18.063Z,2.15
2023-01-18T22:27:48.861Z,2.80
2023-01-18T22:30:17.005Z,2.30
2023-01-18T22:32:44.514Z,2.20
2023-01-18T22:35:14.759Z,2.23
2023-01-18T22:37:42.387Z,2.15
2023-01-18T22:40:10.781Z,3.13
2023-01-18T22:42:38.546Z,2.60
2023-01-18T22:45:08.418Z,2.65
2023-01-18T22:47:35.979Z,2.80
2023-01-18T22:50:03.577Z,2.55
2023-01-18T22:52:31.250Z,2.38
2023-01-18T22:54:58.813Z,2.20
2023-01-18T22:57:26.512Z,2.90
2023-01-18T22:59:54.076Z,3.93
2023-01-18T23:02:23.109Z,2.80
2023-01-18T23:04:50.692Z,2.88
2023-01-18T23:07:18.478Z,3.22
2023-01-18T23:09:46.040Z,3.33
2023-01-18T23:12:13.798Z,3.23
2023-01-18T23:15:13.149Z,3.40
2023-01-18T23:17:43.339Z,3.20
2023-01-18T23:20:13.544Z,3.38
2023-01-18T23:22:41.136Z,3.70
2023-01-18T23:25:09.626Z,3.47
2023-01-18T23:27:37.186Z,3.35
2023-01-18T23:30:05.131Z,3.22
2023-01-18T23:32:32.822Z,3.47
2023-01-18T23:35:01.959Z,3.58
2023-01-18T23:37:29.540Z,3.53
2023-01-18T23:40:14.750Z,3.20
2023-01-18T23:43:01.106Z,3.40
2023-01-18T23:45:46.363Z,3.40
2023-01-18T23:48:38.205Z,3.35
2023-01-18T23:51:28.196Z,3.57
2023-01-18T23:54:15.683Z,3.28
2023-01-18T23:56:43.418Z,3.50
2023-01-18T23:59:11.118Z,3.13
